Terminal Aerodrome Forecast
Issued by NWS Tallahassee, FL

Home | Current Version | Previous Version | Text Only | Print | Product List | Glossary On
Versions: 1 2 3 4 5 6 7 8 9 10 11 12 13 14 15 16 17
990
FTUS42 KTAE 232327
TAFTLH
TAF
KTLH 232327Z 2400/2424 14006KT P6SM SCT040
     FM240700 15003KT 3SM BR SCT020
     FM241500 17007KT P6SM BKN040=

USA.gov is the U.S. government's official web portal to all federal, state and local government web resources and services.